Hailey, ID (83333)

2:32 PM MDT on September 17, 2014 (GMT -0600)
RAWS OHIO GULCH ID US | Change Station
CLOSE
Current Station
Personal Weather Station
Location: Hailey, ID
Elevation: 6248 ft
Nearby Weather Stations

Elev 6248 ft 43.60 °N, 114.32 °W | Updated 48 minutes ago

Mostly Cloudy
Mostly Cloudy
82 °F
Feels Like 80 °F
N
6
Wind Variable Wind from SSW
Gusts 15.0 mph

Today
High -- | Low -- °F
--% Chance of Precip.
Yesterday
High -- | Low -- °F
Precip. -- in
7:18 AM 7:43 PM
Waning Crescent, 33% visible
Pressure 30.01 in
Visibility 10.0 miles
Clouds Scattered Clouds 13000 ft
Mostly Cloudy 16000 ft
Heat Index 80 °F
Dew Point 34 °F
Humidity 18%
Rainfall 0.00 in
Snow Depth 0 in , 0 in , 1 in
UV 4 out of 12
Pollen 6.90 out of 12
Air Quality Not available.
Flu Activity Not available.
METAR KSUN 171947Z 13008KT 10SM SCT130 BKN160 27/08 A3001

More Conditions Fewer Conditions

Pressure 30.01 in
Visibility 10.0 miles
Clouds Scattered Clouds 13000 ft
Mostly Cloudy 16000 ft
Heat Index 80 °F
Dew Point 34 °F
Humidity 18%
Rainfall 0.00 in
Snow Depth 0 in , 0 in , 1 in
UV 4 out of 12
Pollen 6.90 out of 12
Air Quality Not available.
Flu Activity Not available.
METAR KSUN 171947Z 13008KT 10SM SCT130 BKN160 27/08 A3001

More Conditions Fewer Conditions

10-Day Weather Forecast

Almanac

Astronomy

Sep. 17, 2014 Rise Set
Actual Time 7:18 AM MDT 7:43 PM MDT
Civil Twilight 6:50 AM MDT 8:12 PM MDT
Nautical Twilight 6:16 AM MDT 8:46 PM MDT
Astronomical Twilight 5:41 AM MDT 9:20 PM MDT
Moon 1:14 AM MDT 4:03 PM MDT
Length of Visible Light 13h 22m
Length of Day
12h 24m
Tomorrow will be 2m 58s shorter.
Waning Crescent, 33% of the Moon is Illuminated
Today
Waning Crescent
Sep 24
New
Oct 1
First Quarter
Oct 8
Full
Oct 15
Last Quarter

Today's Extremes

State Highs State Lows

Community

WunderPhotos

Upload Photos

1,754,157 photos uploaded!

WunderBlogs® & News

Nearby

Snow Depth

Station Depth Elevation
Cozy Cove 0 in 5380 ft
Bear Basin 0 in 5350 ft
Vienna Mine 1 in 8960 ft
South Mountain 0 in 6500 ft
Savage Pass 0 in 6170 ft

Earthquake Activity

City Distance Mag. Time & Date
No recent earthquake activity has been reported nearby.
Minimum magnitude displayed is 2.5.

Coastal Water Temperatures

Place Temperature
No Stations Reporting

Nearby Weather Stations